Charleston, West Virginia
Current Conditions -  °F | °C
As of 5:54 AM on Thursday 18 Dec 2014 (Local Time) from KCRW Reporting Station
Overcast Overcast  
Wind Chill: 25°   Ceiling: 2600
Heat Index: 30°   Visibility: 10mi
Dew Point: 21°   Wind: 5mph
Humidity: 69%   Direction: 330°NNW
Pressure: 30.22"   Gusts: NA
Location:  38.35°N, 81.64°W
Report Text: KCRW 181054Z 33004KT 10SM OVC026 M01/M06 A3022 RMK AO2 SLP243 T10111061
Loading
Personal Weather Stations






























Interactive Weather Map New forecast layout! Learn more

10-Day Weather Forecast

Advertisements
Track Severe Weather on mobile